sensor_id;sensor_type;location;lat;lon;timestamp;P1;durP1;ratioP1;P2;durP2;ratioP2
22812;SDS011;11573;51.334;3.244;2022-11-20T00:01:20;66.43;;;33.95;;
22812;SDS011;11573;51.334;3.244;2022-11-20T00:03:48;65.85;;;32.67;;
22812;SDS011;11573;51.334;3.244;2022-11-20T00:06:17;72.95;;;36.78;;
22812;SDS011;11573;51.334;3.244;2022-11-20T00:08:45;70.32;;;33.83;;
22812;SDS011;11573;51.334;3.244;2022-11-20T00:11:13;84.22;;;38.22;;
22812;SDS011;11573;51.334;3.244;2022-11-20T00:13:46;81.88;;;37.53;;
22812;SDS011;11573;51.334;3.244;2022-11-20T00:16:15;85.97;;;38.67;;
22812;SDS011;11573;51.334;3.244;2022-11-20T00:18:44;79.80;;;39.72;;
22812;SDS011;11573;51.334;3.244;2022-11-20T00:23:48;85.82;;;40.78;;
22812;SDS011;11573;51.334;3.244;2022-11-20T00:26:16;84.38;;;39.90;;
22812;SDS011;11573;51.334;3.244;2022-11-20T00:28:48;83.57;;;40.03;;
22812;SDS011;11573;51.334;3.244;2022-11-20T00:31:18;89.43;;;40.03;;
22812;SDS011;11573;51.334;3.244;2022-11-20T00:33:45;81.22;;;38.45;;
22812;SDS011;11573;51.334;3.244;2022-11-20T00:36:13;84.60;;;40.50;;
22812;SDS011;11573;51.334;3.244;2022-11-20T00:38:42;87.85;;;40.60;;
22812;SDS011;11573;51.334;3.244;2022-11-20T00:41:11;81.82;;;39.13;;
22812;SDS011;11573;51.334;3.244;2022-11-20T00:43:42;91.05;;;41.67;;
22812;SDS011;11573;51.334;3.244;2022-11-20T00:48:39;94.75;;;42.95;;
22812;SDS011;11573;51.334;3.244;2022-11-20T00:51:06;94.22;;;41.95;;
22812;SDS011;11573;51.334;3.244;2022-11-20T00:53:34;85.63;;;41.70;;
22812;SDS011;11573;51.334;3.244;2022-11-20T00:56:02;86.97;;;39.10;;
22812;SDS011;11573;51.334;3.244;2022-11-20T00:58:31;81.88;;;39.97;;
22812;SDS011;11573;51.334;3.244;2022-11-20T01:01:03;84.95;;;40.15;;
22812;SDS011;11573;51.334;3.244;2022-11-20T01:03:36;94.35;;;40.88;;
22812;SDS011;11573;51.334;3.244;2022-11-20T01:06:06;78.32;;;40.60;;
22812;SDS011;11573;51.334;3.244;2022-11-20T01:08:35;89.93;;;42.42;;
22812;SDS011;11573;51.334;3.244;2022-11-20T01:11:10;85.28;;;41.28;;
22812;SDS011;11573;51.334;3.244;2022-11-20T01:13:38;82.20;;;39.17;;
22812;SDS011;11573;51.334;3.244;2022-11-20T01:18:38;82.28;;;38.38;;
22812;SDS011;11573;51.334;3.244;2022-11-20T01:21:14;77.55;;;38.08;;
22812;SDS011;11573;51.334;3.244;2022-11-20T01:23:43;80.28;;;39.47;;
22812;SDS011;11573;51.334;3.244;2022-11-20T01:26:12;80.50;;;38.70;;
22812;SDS011;11573;51.334;3.244;2022-11-20T01:28:40;72.95;;;36.55;;
22812;SDS011;11573;51.334;3.244;2022-11-20T01:31:12;76.43;;;37.38;;
22812;SDS011;11573;51.334;3.244;2022-11-20T01:33:41;74.65;;;38.05;;
22812;SDS011;11573;51.334;3.244;2022-11-20T01:36:09;76.72;;;38.00;;
22812;SDS011;11573;51.334;3.244;2022-11-20T01:38:36;73.97;;;38.45;;
22812;SDS011;11573;51.334;3.244;2022-11-20T01:41:03;82.45;;;39.03;;
22812;SDS011;11573;51.334;3.244;2022-11-20T01:43:31;77.60;;;38.63;;
22812;SDS011;11573;51.334;3.244;2022-11-20T01:46:15;79.90;;;38.55;;
22812;SDS011;11573;51.334;3.244;2022-11-20T01:49:07;83.27;;;41.60;;
22812;SDS011;11573;51.334;3.244;2022-11-20T01:51:44;71.03;;;36.58;;
22812;SDS011;11573;51.334;3.244;2022-11-20T01:54:16;79.38;;;38.40;;
22812;SDS011;11573;51.334;3.244;2022-11-20T01:56:46;72.68;;;38.17;;
22812;SDS011;11573;51.334;3.244;2022-11-20T01:59:17;76.28;;;37.78;;
22812;SDS011;11573;51.334;3.244;2022-11-20T02:01:46;78.18;;;39.00;;
22812;SDS011;11573;51.334;3.244;2022-11-20T02:04:13;81.78;;;38.72;;
22812;SDS011;11573;51.334;3.244;2022-11-20T02:06:46;84.50;;;41.25;;
22812;SDS011;11573;51.334;3.244;2022-11-20T02:09:27;89.30;;;40.10;;
22812;SDS011;11573;51.334;3.244;2022-11-20T02:11:54;87.65;;;40.25;;
22812;SDS011;11573;51.334;3.244;2022-11-20T02:14:23;82.95;;;38.30;;
22812;SDS011;11573;51.334;3.244;2022-11-20T02:16:51;85.63;;;40.03;;
22812;SDS011;11573;51.334;3.244;2022-11-20T02:19:30;87.72;;;39.17;;
22812;SDS011;11573;51.334;3.244;2022-11-20T02:22:02;84.53;;;38.17;;
22812;SDS011;11573;51.334;3.244;2022-11-20T02:24:37;90.57;;;41.55;;
22812;SDS011;11573;51.334;3.244;2022-11-20T02:27:11;86.00;;;38.58;;
22812;SDS011;11573;51.334;3.244;2022-11-20T02:29:47;83.03;;;39.30;;
22812;SDS011;11573;51.334;3.244;2022-11-20T02:32:23;90.13;;;38.58;;
22812;SDS011;11573;51.334;3.244;2022-11-20T02:34:52;80.47;;;37.00;;
22812;SDS011;11573;51.334;3.244;2022-11-20T02:37:20;96.15;;;41.75;;
22812;SDS011;11573;51.334;3.244;2022-11-20T02:39:48;91.32;;;40.13;;
22812;SDS011;11573;51.334;3.244;2022-11-20T02:42:17;84.15;;;39.65;;
22812;SDS011;11573;51.334;3.244;2022-11-20T02:44:44;80.05;;;37.08;;
22812;SDS011;11573;51.334;3.244;2022-11-20T02:47:11;85.38;;;38.95;;
22812;SDS011;11573;51.334;3.244;2022-11-20T02:49:38;89.82;;;39.03;;
22812;SDS011;11573;51.334;3.244;2022-11-20T02:52:05;91.78;;;38.47;;
22812;SDS011;11573;51.334;3.244;2022-11-20T02:54:32;72.80;;;36.10;;
22812;SDS011;11573;51.334;3.244;2022-11-20T02:56:59;86.75;;;37.15;;
22812;SDS011;11573;51.334;3.244;2022-11-20T02:59:26;80.47;;;36.50;;
22812;SDS011;11573;51.334;3.244;2022-11-20T03:01:53;81.88;;;37.58;;
22812;SDS011;11573;51.334;3.244;2022-11-20T03:04:20;83.40;;;38.88;;
22812;SDS011;11573;51.334;3.244;2022-11-20T03:06:46;79.00;;;37.38;;
22812;SDS011;11573;51.334;3.244;2022-11-20T03:09:13;84.13;;;36.97;;
22812;SDS011;11573;51.334;3.244;2022-11-20T03:11:40;83.65;;;38.40;;
22812;SDS011;11573;51.334;3.244;2022-11-20T03:14:07;86.85;;;37.72;;
22812;SDS011;11573;51.334;3.244;2022-11-20T03:16:34;78.28;;;37.42;;
22812;SDS011;11573;51.334;3.244;2022-11-20T03:19:01;81.18;;;36.50;;
22812;SDS011;11573;51.334;3.244;2022-11-20T03:21:28;79.45;;;36.72;;
22812;SDS011;11573;51.334;3.244;2022-11-20T03:23:56;79.72;;;37.58;;
22812;SDS011;11573;51.334;3.244;2022-11-20T03:26:24;83.55;;;38.55;;
22812;SDS011;11573;51.334;3.244;2022-11-20T03:28:53;73.50;;;36.70;;
22812;SDS011;11573;51.334;3.244;2022-11-20T03:31:22;82.38;;;36.88;;
22812;SDS011;11573;51.334;3.244;2022-11-20T03:33:53;81.10;;;38.15;;
22812;SDS011;11573;51.334;3.244;2022-11-20T03:36:20;82.22;;;37.40;;
22812;SDS011;11573;51.334;3.244;2022-11-20T03:38:48;81.22;;;37.60;;
22812;SDS011;11573;51.334;3.244;2022-11-20T03:41:16;87.70;;;39.28;;
22812;SDS011;11573;51.334;3.244;2022-11-20T03:43:48;82.10;;;38.53;;
22812;SDS011;11573;51.334;3.244;2022-11-20T03:46:15;88.07;;;39.28;;
22812;SDS011;11573;51.334;3.244;2022-11-20T03:48:42;78.43;;;38.63;;
22812;SDS011;11573;51.334;3.244;2022-11-20T03:51:17;85.30;;;37.47;;
22812;SDS011;11573;51.334;3.244;2022-11-20T03:53:47;88.35;;;39.63;;
22812;SDS011;11573;51.334;3.244;2022-11-20T03:56:16;79.25;;;37.10;;
22812;SDS011;11573;51.334;3.244;2022-11-20T03:58:44;84.15;;;39.25;;
22812;SDS011;11573;51.334;3.244;2022-11-20T04:01:18;83.55;;;38.28;;
22812;SDS011;11573;51.334;3.244;2022-11-20T04:03:47;87.55;;;38.92;;
22812;SDS011;11573;51.334;3.244;2022-11-20T04:06:16;84.30;;;37.30;;
22812;SDS011;11573;51.334;3.244;2022-11-20T04:08:48;87.93;;;40.33;;
22812;SDS011;11573;51.334;3.244;2022-11-20T04:11:29;82.57;;;38.25;;
22812;SDS011;11573;51.334;3.244;2022-11-20T04:13:58;87.43;;;40.13;;
22812;SDS011;11573;51.334;3.244;2022-11-20T04:16:29;91.38;;;41.03;;
22812;SDS011;11573;51.334;3.244;2022-11-20T04:18:58;89.07;;;39.60;;
22812;SDS011;11573;51.334;3.244;2022-11-20T04:21:26;85.85;;;39.13;;
22812;SDS011;11573;51.334;3.244;2022-11-20T04:23:54;86.90;;;39.28;;
22812;SDS011;11573;51.334;3.244;2022-11-20T04:26:22;88.45;;;39.30;;
22812;SDS011;11573;51.334;3.244;2022-11-20T04:28:50;93.53;;;38.90;;
22812;SDS011;11573;51.334;3.244;2022-11-20T04:31:18;90.28;;;39.20;;
22812;SDS011;11573;51.334;3.244;2022-11-20T04:33:47;83.30;;;37.88;;
22812;SDS011;11573;51.334;3.244;2022-11-20T04:36:15;85.35;;;38.58;;
22812;SDS011;11573;51.334;3.244;2022-11-20T04:38:44;84.22;;;38.90;;
22812;SDS011;11573;51.334;3.244;2022-11-20T04:41:15;82.68;;;38.92;;
22812;SDS011;11573;51.334;3.244;2022-11-20T04:43:47;87.88;;;39.60;;
22812;SDS011;11573;51.334;3.244;2022-11-20T04:46:19;93.70;;;40.30;;
22812;SDS011;11573;51.334;3.244;2022-11-20T04:48:47;90.97;;;41.13;;
22812;SDS011;11573;51.334;3.244;2022-11-20T04:51:14;84.90;;;37.92;;
22812;SDS011;11573;51.334;3.244;2022-11-20T04:53:41;86.53;;;39.40;;
22812;SDS011;11573;51.334;3.244;2022-11-20T04:56:08;95.50;;;39.03;;
22812;SDS011;11573;51.334;3.244;2022-11-20T04:58:37;96.97;;;40.17;;
22812;SDS011;11573;51.334;3.244;2022-11-20T05:01:09;90.82;;;41.33;;
22812;SDS011;11573;51.334;3.244;2022-11-20T05:03:41;96.82;;;40.55;;
22812;SDS011;11573;51.334;3.244;2022-11-20T05:06:10;103.18;;;42.42;;
22812;SDS011;11573;51.334;3.244;2022-11-20T05:08:39;99.25;;;42.20;;
22812;SDS011;11573;51.334;3.244;2022-11-20T05:11:07;103.05;;;41.65;;
22812;SDS011;11573;51.334;3.244;2022-11-20T05:13:38;93.90;;;41.95;;
22812;SDS011;11573;51.334;3.244;2022-11-20T05:16:07;101.07;;;42.22;;
22812;SDS011;11573;51.334;3.244;2022-11-20T05:18:45;95.97;;;40.80;;
22812;SDS011;11573;51.334;3.244;2022-11-20T05:21:12;94.43;;;38.72;;
22812;SDS011;11573;51.334;3.244;2022-11-20T05:23:40;96.22;;;40.38;;
22812;SDS011;11573;51.334;3.244;2022-11-20T05:26:08;100.38;;;42.97;;
22812;SDS011;11573;51.334;3.244;2022-11-20T05:28:39;106.85;;;42.38;;
22812;SDS011;11573;51.334;3.244;2022-11-20T05:31:07;112.93;;;41.35;;
22812;SDS011;11573;51.334;3.244;2022-11-20T05:33:41;105.75;;;42.40;;
22812;SDS011;11573;51.334;3.244;2022-11-20T05:36:10;119.63;;;46.22;;
22812;SDS011;11573;51.334;3.244;2022-11-20T05:38:41;128.35;;;46.92;;
22812;SDS011;11573;51.334;3.244;2022-11-20T05:41:09;126.13;;;45.88;;
22812;SDS011;11573;51.334;3.244;2022-11-20T05:43:39;123.00;;;48.97;;
22812;SDS011;11573;51.334;3.244;2022-11-20T05:46:07;120.50;;;46.28;;
22812;SDS011;11573;51.334;3.244;2022-11-20T05:48:36;127.93;;;47.25;;
22812;SDS011;11573;51.334;3.244;2022-11-20T05:51:04;127.10;;;46.80;;
22812;SDS011;11573;51.334;3.244;2022-11-20T05:53:33;124.07;;;46.30;;
22812;SDS011;11573;51.334;3.244;2022-11-20T05:56:01;112.28;;;45.30;;
22812;SDS011;11573;51.334;3.244;2022-11-20T05:58:30;124.22;;;49.03;;
22812;SDS011;11573;51.334;3.244;2022-11-20T06:03:45;124.32;;;46.65;;
22812;SDS011;11573;51.334;3.244;2022-11-20T06:06:14;121.22;;;45.97;;
22812;SDS011;11573;51.334;3.244;2022-11-20T06:08:41;123.15;;;45.53;;
22812;SDS011;11573;51.334;3.244;2022-11-20T06:11:09;138.60;;;48.35;;
22812;SDS011;11573;51.334;3.244;2022-11-20T06:13:38;125.22;;;46.10;;
22812;SDS011;11573;51.334;3.244;2022-11-20T06:16:08;134.07;;;47.95;;
22812;SDS011;11573;51.334;3.244;2022-11-20T06:18:36;131.10;;;48.35;;
22812;SDS011;11573;51.334;3.244;2022-11-20T06:21:04;131.15;;;46.60;;
22812;SDS011;11573;51.334;3.244;2022-11-20T06:23:36;139.38;;;49.63;;
22812;SDS011;11573;51.334;3.244;2022-11-20T06:26:04;141.32;;;49.50;;
22812;SDS011;11573;51.334;3.244;2022-11-20T06:28:33;136.88;;;49.38;;
22812;SDS011;11573;51.334;3.244;2022-11-20T06:31:00;137.65;;;51.10;;
22812;SDS011;11573;51.334;3.244;2022-11-20T06:33:27;140.23;;;48.58;;
22812;SDS011;11573;51.334;3.244;2022-11-20T06:35:58;156.32;;;50.90;;
22812;SDS011;11573;51.334;3.244;2022-11-20T06:38:32;156.25;;;51.90;;
22812;SDS011;11573;51.334;3.244;2022-11-20T06:40:59;156.55;;;52.03;;
22812;SDS011;11573;51.334;3.244;2022-11-20T06:43:28;169.95;;;54.97;;
22812;SDS011;11573;51.334;3.244;2022-11-20T06:45:56;148.20;;;52.03;;
22812;SDS011;11573;51.334;3.244;2022-11-20T06:48:25;171.70;;;53.75;;
22812;SDS011;11573;51.334;3.244;2022-11-20T06:50:53;150.80;;;51.05;;
22812;SDS011;11573;51.334;3.244;2022-11-20T06:53:21;156.30;;;51.47;;
22812;SDS011;11573;51.334;3.244;2022-11-20T06:55:48;169.20;;;52.25;;
22812;SDS011;11573;51.334;3.244;2022-11-20T06:58:16;148.85;;;52.28;;
22812;SDS011;11573;51.334;3.244;2022-11-20T07:00:43;162.23;;;51.30;;
22812;SDS011;11573;51.334;3.244;2022-11-20T07:03:11;146.00;;;50.90;;
22812;SDS011;11573;51.334;3.244;2022-11-20T07:05:38;142.32;;;47.78;;
22812;SDS011;11573;51.334;3.244;2022-11-20T07:08:06;135.82;;;44.63;;
22812;SDS011;11573;51.334;3.244;2022-11-20T07:10:33;144.82;;;45.88;;
22812;SDS011;11573;51.334;3.244;2022-11-20T07:13:00;139.13;;;45.42;;
22812;SDS011;11573;51.334;3.244;2022-11-20T07:15:27;131.30;;;44.92;;
22812;SDS011;11573;51.334;3.244;2022-11-20T07:17:54;131.52;;;43.88;;
22812;SDS011;11573;51.334;3.244;2022-11-20T07:20:21;135.30;;;46.15;;
22812;SDS011;11573;51.334;3.244;2022-11-20T07:22:53;148.13;;;49.22;;
22812;SDS011;11573;51.334;3.244;2022-11-20T07:25:24;136.60;;;47.00;;
22812;SDS011;11573;51.334;3.244;2022-11-20T07:27:52;150.30;;;47.60;;
22812;SDS011;11573;51.334;3.244;2022-11-20T07:30:22;136.35;;;44.42;;
22812;SDS011;11573;51.334;3.244;2022-11-20T07:32:52;145.65;;;48.58;;
22812;SDS011;11573;51.334;3.244;2022-11-20T07:35:20;143.75;;;44.72;;
22812;SDS011;11573;51.334;3.244;2022-11-20T07:37:48;136.30;;;44.92;;
22812;SDS011;11573;51.334;3.244;2022-11-20T07:40:15;131.15;;;44.10;;
22812;SDS011;11573;51.334;3.244;2022-11-20T07:42:47;136.02;;;45.58;;
22812;SDS011;11573;51.334;3.244;2022-11-20T07:45:15;139.30;;;45.65;;
22812;SDS011;11573;51.334;3.244;2022-11-20T07:47:43;150.98;;;48.08;;
22812;SDS011;11573;51.334;3.244;2022-11-20T07:50:10;142.13;;;46.35;;
22812;SDS011;11573;51.334;3.244;2022-11-20T07:52:38;132.57;;;45.22;;
22812;SDS011;11573;51.334;3.244;2022-11-20T07:55:05;146.40;;;46.22;;
22812;SDS011;11573;51.334;3.244;2022-11-20T07:57:33;118.28;;;42.40;;
22812;SDS011;11573;51.334;3.244;2022-11-20T08:00:00;141.60;;;44.60;;
22812;SDS011;11573;51.334;3.244;2022-11-20T08:02:37;126.13;;;41.38;;
22812;SDS011;11573;51.334;3.244;2022-11-20T08:05:06;124.22;;;41.70;;
22812;SDS011;11573;51.334;3.244;2022-11-20T08:07:37;135.43;;;41.25;;
22812;SDS011;11573;51.334;3.244;2022-11-20T08:10:05;149.55;;;41.55;;
22812;SDS011;11573;51.334;3.244;2022-11-20T08:12:33;117.13;;;41.15;;
22812;SDS011;11573;51.334;3.244;2022-11-20T08:15:19;133.63;;;40.38;;
22812;SDS011;11573;51.334;3.244;2022-11-20T08:17:46;127.45;;;39.58;;
22812;SDS011;11573;51.334;3.244;2022-11-20T08:20:33;124.38;;;41.08;;
22812;SDS011;11573;51.334;3.244;2022-11-20T08:23:01;122.40;;;41.60;;
22812;SDS011;11573;51.334;3.244;2022-11-20T08:25:32;124.00;;;42.25;;
22812;SDS011;11573;51.334;3.244;2022-11-20T08:28:01;128.48;;;40.92;;
22812;SDS011;11573;51.334;3.244;2022-11-20T08:30:43;118.70;;;39.92;;
22812;SDS011;11573;51.334;3.244;2022-11-20T08:33:12;123.82;;;39.38;;
22812;SDS011;11573;51.334;3.244;2022-11-20T08:35:39;126.72;;;41.22;;
22812;SDS011;11573;51.334;3.244;2022-11-20T08:38:08;123.63;;;39.05;;
22812;SDS011;11573;51.334;3.244;2022-11-20T08:40:35;114.22;;;39.33;;
22812;SDS011;11573;51.334;3.244;2022-11-20T08:43:02;123.15;;;41.40;;
22812;SDS011;11573;51.334;3.244;2022-11-20T08:45:29;114.25;;;38.53;;
22812;SDS011;11573;51.334;3.244;2022-11-20T08:48:00;118.07;;;40.75;;
22812;SDS011;11573;51.334;3.244;2022-11-20T08:50:29;124.70;;;41.95;;
22812;SDS011;11573;51.334;3.244;2022-11-20T08:53:05;111.50;;;39.53;;
22812;SDS011;11573;51.334;3.244;2022-11-20T08:55:32;111.18;;;38.35;;
22812;SDS011;11573;51.334;3.244;2022-11-20T08:58:05;111.15;;;38.28;;
22812;SDS011;11573;51.334;3.244;2022-11-20T09:00:33;111.10;;;39.78;;
22812;SDS011;11573;51.334;3.244;2022-11-20T09:03:01;113.00;;;40.08;;
22812;SDS011;11573;51.334;3.244;2022-11-20T09:05:28;118.32;;;39.13;;
22812;SDS011;11573;51.334;3.244;2022-11-20T09:07:58;117.30;;;39.53;;
22812;SDS011;11573;51.334;3.244;2022-11-20T09:10:28;117.82;;;39.30;;
22812;SDS011;11573;51.334;3.244;2022-11-20T09:12:55;117.63;;;41.17;;
22812;SDS011;11573;51.334;3.244;2022-11-20T09:15:23;115.90;;;40.67;;
22812;SDS011;11573;51.334;3.244;2022-11-20T09:17:55;123.43;;;41.40;;
22812;SDS011;11573;51.334;3.244;2022-11-20T09:20:25;123.00;;;40.47;;
22812;SDS011;11573;51.334;3.244;2022-11-20T09:22:53;124.63;;;40.03;;
22812;SDS011;11573;51.334;3.244;2022-11-20T09:25:20;122.78;;;42.80;;
22812;SDS011;11573;51.334;3.244;2022-11-20T09:27:46;119.22;;;39.28;;
22812;SDS011;11573;51.334;3.244;2022-11-20T09:30:14;105.88;;;39.75;;
22812;SDS011;11573;51.334;3.244;2022-11-20T09:32:41;113.07;;;39.80;;
22812;SDS011;11573;51.334;3.244;2022-11-20T09:35:08;107.68;;;38.85;;
22812;SDS011;11573;51.334;3.244;2022-11-20T09:37:37;106.13;;;38.10;;
22812;SDS011;11573;51.334;3.244;2022-11-20T09:40:04;102.25;;;37.33;;
22812;SDS011;11573;51.334;3.244;2022-11-20T09:42:40;98.75;;;38.90;;
22812;SDS011;11573;51.334;3.244;2022-11-20T09:50:54;94.47;;;35.78;;
22812;SDS011;11573;51.334;3.244;2022-11-20T09:53:52;89.15;;;34.60;;
22812;SDS011;11573;51.334;3.244;2022-11-20T09:56:20;88.57;;;34.17;;
22812;SDS011;11573;51.334;3.244;2022-11-20T09:58:51;88.03;;;35.35;;
22812;SDS011;11573;51.334;3.244;2022-11-20T10:01:21;77.40;;;31.33;;
22812;SDS011;11573;51.334;3.244;2022-11-20T10:09:39;72.72;;;29.10;;
22812;SDS011;11573;51.334;3.244;2022-11-20T10:12:31;70.70;;;30.42;;
22812;SDS011;11573;51.334;3.244;2022-11-20T10:15:21;62.30;;;28.00;;
22812;SDS011;11573;51.334;3.244;2022-11-20T10:29:34;45.40;;;22.85;;
22812;SDS011;11573;51.334;3.244;2022-11-20T10:32:07;42.33;;;22.83;;
22812;SDS011;11573;51.334;3.244;2022-11-20T10:37:16;33.87;;;19.63;;
22812;SDS011;11573;51.334;3.244;2022-11-20T10:39:59;32.72;;;19.40;;
22812;SDS011;11573;51.334;3.244;2022-11-20T10:51:01;33.65;;;16.25;;
22812;SDS011;11573;51.334;3.244;2022-11-20T10:59:10;25.85;;;14.57;;
22812;SDS011;11573;51.334;3.244;2022-11-20T11:01:51;21.33;;;13.13;;
22812;SDS011;11573;51.334;3.244;2022-11-20T11:06:47;21.52;;;11.27;;
22812;SDS011;11573;51.334;3.244;2022-11-20T11:09:16;20.55;;;11.15;;
22812;SDS011;11573;51.334;3.244;2022-11-20T11:11:49;23.33;;;12.18;;
22812;SDS011;11573;51.334;3.244;2022-11-20T11:14:16;21.33;;;12.20;;
22812;SDS011;11573;51.334;3.244;2022-11-20T11:16:50;19.45;;;10.57;;
22812;SDS011;11573;51.334;3.244;2022-11-20T11:19:22;21.17;;;10.75;;
22812;SDS011;11573;51.334;3.244;2022-11-20T11:21:56;14.73;;;9.13;;
22812;SDS011;11573;51.334;3.244;2022-11-20T11:24:24;17.23;;;8.82;;
22812;SDS011;11573;51.334;3.244;2022-11-20T11:27:12;16.80;;;8.93;;
22812;SDS011;11573;51.334;3.244;2022-11-20T11:29:45;16.17;;;8.32;;
22812;SDS011;11573;51.334;3.244;2022-11-20T11:32:13;13.55;;;8.25;;
22812;SDS011;11573;51.334;3.244;2022-11-20T11:34:42;16.33;;;6.78;;
22812;SDS011;11573;51.334;3.244;2022-11-20T11:37:18;11.68;;;6.35;;
22812;SDS011;11573;51.334;3.244;2022-11-20T11:39:50;13.98;;;6.15;;
22812;SDS011;11573;51.334;3.244;2022-11-20T11:42:45;9.15;;;5.18;;
22812;SDS011;11573;51.334;3.244;2022-11-20T11:45:25;12.10;;;5.32;;
22812;SDS011;11573;51.334;3.244;2022-11-20T11:47:52;10.43;;;5.40;;
22812;SDS011;11573;51.334;3.244;2022-11-20T11:50:23;10.25;;;4.78;;
22812;SDS011;11573;51.334;3.244;2022-11-20T11:58:09;8.25;;;4.68;;
22812;SDS011;11573;51.334;3.244;2022-11-20T12:03:52;7.47;;;4.38;;
22812;SDS011;11573;51.334;3.244;2022-11-20T12:06:37;8.98;;;4.78;;
22812;SDS011;11573;51.334;3.244;2022-11-20T12:09:10;12.48;;;4.47;;
22812;SDS011;11573;51.334;3.244;2022-11-20T12:11:59;11.70;;;4.85;;
22812;SDS011;11573;51.334;3.244;2022-11-20T12:14:37;9.40;;;4.88;;
22812;SDS011;11573;51.334;3.244;2022-11-20T12:17:07;9.90;;;4.80;;
22812;SDS011;11573;51.334;3.244;2022-11-20T12:19:37;8.68;;;4.85;;
22812;SDS011;11573;51.334;3.244;2022-11-20T12:30:48;7.10;;;5.35;;
22812;SDS011;11573;51.334;3.244;2022-11-20T12:36:30;7.32;;;5.63;;
22812;SDS011;11573;51.334;3.244;2022-11-20T12:39:07;10.65;;;5.65;;
22812;SDS011;11573;51.334;3.244;2022-11-20T12:45:00;7.63;;;5.63;;
22812;SDS011;11573;51.334;3.244;2022-11-20T12:56:35;8.15;;;6.20;;
22812;SDS011;11573;51.334;3.244;2022-11-20T12:59:18;8.60;;;5.63;;
22812;SDS011;11573;51.334;3.244;2022-11-20T13:07:53;7.78;;;5.82;;
22812;SDS011;11573;51.334;3.244;2022-11-20T13:10:27;7.68;;;5.65;;
22812;SDS011;11573;51.334;3.244;2022-11-20T13:13:00;6.72;;;5.63;;
22812;SDS011;11573;51.334;3.244;2022-11-20T13:15:38;8.75;;;6.57;;
22812;SDS011;11573;51.334;3.244;2022-11-20T13:18:40;7.72;;;5.53;;
22812;SDS011;11573;51.334;3.244;2022-11-20T13:21:15;7.65;;;5.53;;
22812;SDS011;11573;51.334;3.244;2022-11-20T13:24:04;7.47;;;6.78;;
22812;SDS011;11573;51.334;3.244;2022-11-20T13:27:00;7.65;;;5.38;;
22812;SDS011;11573;51.334;3.244;2022-11-20T13:29:29;10.52;;;6.97;;
22812;SDS011;11573;51.334;3.244;2022-11-20T13:32:16;7.55;;;6.53;;
22812;SDS011;11573;51.334;3.244;2022-11-20T13:34:51;7.07;;;6.38;;
22812;SDS011;11573;51.334;3.244;2022-11-20T13:45:41;9.00;;;8.13;;
22812;SDS011;11573;51.334;3.244;2022-11-20T13:48:30;9.40;;;8.43;;
22812;SDS011;11573;51.334;3.244;2022-11-20T13:59:39;9.32;;;5.85;;
22812;SDS011;11573;51.334;3.244;2022-11-20T14:02:25;8.50;;;6.50;;
22812;SDS011;11573;51.334;3.244;2022-11-20T14:04:55;8.48;;;5.10;;
22812;SDS011;11573;51.334;3.244;2022-11-20T14:07:32;9.32;;;4.75;;
22812;SDS011;11573;51.334;3.244;2022-11-20T14:13:10;12.27;;;3.50;;
22812;SDS011;11573;51.334;3.244;2022-11-20T14:15:44;15.93;;;2.73;;
22812;SDS011;11573;51.334;3.244;2022-11-20T14:18:20;14.10;;;3.22;;
22812;SDS011;11573;51.334;3.244;2022-11-20T14:20:50;15.52;;;2.75;;
22812;SDS011;11573;51.334;3.244;2022-11-20T14:23:27;16.67;;;3.13;;
22812;SDS011;11573;51.334;3.244;2022-11-20T14:25:56;15.02;;;3.15;;
22812;SDS011;11573;51.334;3.244;2022-11-20T14:28:25;15.25;;;3.17;;
22812;SDS011;11573;51.334;3.244;2022-11-20T14:30:54;18.27;;;3.47;;
22812;SDS011;11573;51.334;3.244;2022-11-20T14:33:22;17.75;;;3.28;;
22812;SDS011;11573;51.334;3.244;2022-11-20T14:35:52;14.13;;;3.47;;
22812;SDS011;11573;51.334;3.244;2022-11-20T14:38:27;23.23;;;3.88;;
22812;SDS011;11573;51.334;3.244;2022-11-20T14:41:05;19.63;;;3.85;;
22812;SDS011;11573;51.334;3.244;2022-11-20T14:43:44;23.80;;;3.67;;
22812;SDS011;11573;51.334;3.244;2022-11-20T14:46:12;14.85;;;3.35;;
22812;SDS011;11573;51.334;3.244;2022-11-20T14:48:42;18.33;;;3.75;;
22812;SDS011;11573;51.334;3.244;2022-11-20T14:54:08;17.30;;;3.63;;
22812;SDS011;11573;51.334;3.244;2022-11-20T14:56:36;20.77;;;3.78;;
22812;SDS011;11573;51.334;3.244;2022-11-20T14:59:03;12.98;;;3.20;;
22812;SDS011;11573;51.334;3.244;2022-11-20T15:01:31;20.23;;;3.90;;
22812;SDS011;11573;51.334;3.244;2022-11-20T15:04:32;25.50;;;3.47;;
22812;SDS011;11573;51.334;3.244;2022-11-20T15:06:54;16.25;;;3.97;;
22812;SDS011;11573;51.334;3.244;2022-11-20T15:09:22;19.13;;;3.50;;
22812;SDS011;11573;51.334;3.244;2022-11-20T15:11:59;16.52;;;3.55;;
22812;SDS011;11573;51.334;3.244;2022-11-20T15:14:28;22.40;;;4.32;;
22812;SDS011;11573;51.334;3.244;2022-11-20T15:16:58;24.05;;;4.40;;
22812;SDS011;11573;51.334;3.244;2022-11-20T15:19:25;21.38;;;3.75;;
22812;SDS011;11573;51.334;3.244;2022-11-20T15:21:53;23.10;;;5.68;;
22812;SDS011;11573;51.334;3.244;2022-11-20T15:24:20;20.02;;;5.63;;
22812;SDS011;11573;51.334;3.244;2022-11-20T15:26:47;22.48;;;7.00;;
22812;SDS011;11573;51.334;3.244;2022-11-20T15:29:15;22.77;;;3.72;;
22812;SDS011;11573;51.334;3.244;2022-11-20T15:31:47;22.13;;;3.85;;
22812;SDS011;11573;51.334;3.244;2022-11-20T15:34:14;18.48;;;4.20;;
22812;SDS011;11573;51.334;3.244;2022-11-20T15:36:42;20.15;;;3.42;;
22812;SDS011;11573;51.334;3.244;2022-11-20T15:39:09;16.85;;;3.72;;
22812;SDS011;11573;51.334;3.244;2022-11-20T15:41:37;19.60;;;3.70;;
22812;SDS011;11573;51.334;3.244;2022-11-20T15:44:05;13.57;;;3.05;;
22812;SDS011;11573;51.334;3.244;2022-11-20T15:46:33;15.13;;;3.42;;
22812;SDS011;11573;51.334;3.244;2022-11-20T15:49:05;18.38;;;3.42;;
22812;SDS011;11573;51.334;3.244;2022-11-20T15:51:38;35.53;;;13.10;;
22812;SDS011;11573;51.334;3.244;2022-11-20T15:54:17;17.17;;;3.55;;
22812;SDS011;11573;51.334;3.244;2022-11-20T15:56:48;16.50;;;3.33;;
22812;SDS011;11573;51.334;3.244;2022-11-20T15:59:15;20.05;;;3.33;;
22812;SDS011;11573;51.334;3.244;2022-11-20T16:01:42;13.20;;;2.88;;
22812;SDS011;11573;51.334;3.244;2022-11-20T16:04:10;15.15;;;3.47;;
22812;SDS011;11573;51.334;3.244;2022-11-20T16:06:38;21.70;;;3.53;;
22812;SDS011;11573;51.334;3.244;2022-11-20T16:09:06;17.00;;;3.33;;
22812;SDS011;11573;51.334;3.244;2022-11-20T16:11:33;19.42;;;3.72;;
22812;SDS011;11573;51.334;3.244;2022-11-20T16:14:04;14.90;;;3.50;;
22812;SDS011;11573;51.334;3.244;2022-11-20T16:16:51;15.98;;;3.20;;
22812;SDS011;11573;51.334;3.244;2022-11-20T16:19:18;21.73;;;3.90;;
22812;SDS011;11573;51.334;3.244;2022-11-20T16:21:45;23.45;;;4.00;;
22812;SDS011;11573;51.334;3.244;2022-11-20T16:24:13;17.40;;;4.13;;
22812;SDS011;11573;51.334;3.244;2022-11-20T16:26:41;19.67;;;3.80;;
22812;SDS011;11573;51.334;3.244;2022-11-20T16:29:08;23.40;;;3.63;;
22812;SDS011;11573;51.334;3.244;2022-11-20T16:31:36;18.67;;;3.47;;
22812;SDS011;11573;51.334;3.244;2022-11-20T16:34:04;20.85;;;3.83;;
22812;SDS011;11573;51.334;3.244;2022-11-20T16:36:41;16.35;;;3.38;;
22812;SDS011;11573;51.334;3.244;2022-11-20T16:39:10;20.20;;;3.90;;